Time;durP1;ratioP1;P1;durP2;ratioP2;P2;SDS_P1;SDS_P2;PMS_P1;PMS_P2;Temp;Humidity;BMP_temperature;BMP_pressure;BME280_temperature;BME280_humidity;BME280_pressure;Samples;Min_cycle;Max_cycle;Signal;HPM_P1;HPM_P2
2022/10/14 00:00:35;;;;;;;18.20;7.13;;;13.50;99.90;;;;;;5034087;28;20187;-78
2022/10/14 00:03:00;;;;;;;10.40;7.17;;;13.60;99.90;;;;;;5052325;28;20498;-78
2022/10/14 00:05:26;;;;;;;15.37;7.47;;;13.50;99.90;;;;;;5050797;28;20688;-77
2022/10/14 00:07:52;;;;;;;11.10;7.20;;;13.50;99.90;;;;;;5052788;28;20184;-78
2022/10/14 00:10:18;;;;;;;12.03;8.30;;;13.50;99.90;;;;;;5052475;28;20430;-77
2022/10/14 00:12:44;;;;;;;15.00;8.73;;;13.50;99.90;;;;;;5050564;28;20215;-77
2022/10/14 00:15:09;;;;;;;23.40;11.17;;;13.50;99.90;;;;;;5051034;28;20223;-77
2022/10/14 00:17:35;;;;;;;15.03;8.30;;;13.50;99.90;;;;;;5050637;28;20489;-77
2022/10/14 00:20:02;;;;;;;11.90;8.23;;;13.40;99.90;;;;;;5050596;28;20185;-77
2022/10/14 00:22:27;;;;;;;14.30;8.90;;;13.40;99.90;;;;;;5050678;28;20430;-77
2022/10/14 00:24:53;;;;;;;12.70;7.60;;;13.40;99.90;;;;;;5051304;28;20810;-78
2022/10/14 00:27:19;;;;;;;13.03;7.40;;;13.40;99.90;;;;;;5051132;28;20274;-78
2022/10/14 00:29:44;;;;;;;16.37;7.90;;;13.40;99.90;;;;;;5051059;28;20317;-78
2022/10/14 00:32:10;;;;;;;14.83;7.50;;;13.20;99.90;;;;;;5050253;28;20212;-77
2022/10/14 00:34:36;;;;;;;13.17;8.20;;;13.30;99.90;;;;;;5051558;28;20211;-77
2022/10/14 00:37:01;;;;;;;8.27;6.53;;;13.30;99.90;;;;;;5051921;28;20176;-77
2022/10/14 00:39:27;;;;;;;14.73;6.80;;;13.30;99.90;;;;;;5050234;28;20657;-77
2022/10/14 00:41:53;;;;;;;15.03;8.00;;;13.20;99.90;;;;;;5051432;28;20188;-77
2022/10/14 00:44:18;;;;;;;11.17;7.67;;;13.20;99.90;;;;;;5051553;28;20269;-76
2022/10/14 00:46:46;;;;;;;18.73;8.00;;;13.10;99.90;;;;;;5050739;28;20418;-80
2022/10/14 00:49:23;;;;;;;15.47;7.13;;;13.10;99.90;;;;;;5049694;28;20191;-79
2022/10/14 00:51:55;;;;;;;11.70;7.33;;;13.10;99.90;;;;;;5050845;28;20459;-80
2022/10/14 00:54:28;;;;;;;12.83;8.00;;;13.00;99.90;;;;;;5050693;28;20431;-79
2022/10/14 00:56:53;;;;;;;15.63;7.20;;;13.00;99.90;;;;;;5050185;28;20414;-80
2022/10/14 00:59:19;;;;;;;13.03;7.57;;;13.00;99.90;;;;;;5048745;28;20840;-79
2022/10/14 01:01:45;;;;;;;12.10;7.43;;;13.00;99.90;;;;;;5050255;28;20200;-79
2022/10/14 01:04:10;;;;;;;8.90;6.83;;;13.00;99.90;;;;;;5032131;28;20186;-79
2022/10/14 01:06:42;;;;;;;15.60;7.37;;;13.10;99.90;;;;;;5048710;28;20558;-80
2022/10/14 01:09:39;;;;;;;13.03;6.47;;;13.10;99.90;;;;;;5048837;28;20541;-77
2022/10/14 01:12:13;;;;;;;8.87;6.17;;;13.10;99.90;;;;;;5049682;28;20465;-79
2022/10/14 01:14:50;;;;;;;12.43;8.00;;;13.00;99.90;;;;;;5048174;28;21019;-78
2022/10/14 01:17:32;;;;;;;12.83;6.97;;;13.00;99.90;;;;;;5050207;28;20515;-79
2022/10/14 01:20:06;;;;;;;16.23;7.20;;;13.00;99.90;;;;;;5049766;28;20404;-79
2022/10/14 01:22:42;;;;;;;9.70;6.07;;;13.10;99.90;;;;;;5050028;28;20415;-78
2022/10/14 01:25:22;;;;;;;8.90;6.27;;;13.10;99.90;;;;;;5032730;28;20468;-78
2022/10/14 01:28:02;;;;;;;9.67;6.70;;;13.10;99.90;;;;;;5049968;28;20789;-78
2022/10/14 01:30:50;;;;;;;11.60;6.87;;;13.10;99.90;;;;;;5048249;28;21013;-78
2022/10/14 01:33:25;;;;;;;14.13;6.90;;;13.10;99.90;;;;;;5048746;28;20512;-78
2022/10/14 01:36:08;;;;;;;18.40;6.67;;;13.20;99.90;;;;;;5048163;28;20977;-77
2022/10/14 01:38:40;;;;;;;12.37;6.70;;;13.00;99.90;;;;;;5049516;28;20884;-78
2022/10/14 01:41:14;;;;;;;15.53;6.77;;;13.00;99.90;;;;;;5050199;28;20925;-78
2022/10/14 01:43:42;;;;;;;9.97;5.90;;;13.00;99.90;;;;;;5049584;28;20421;-79
2022/10/14 01:46:10;;;;;;;13.73;6.90;;;13.00;99.90;;;;;;5049566;28;20511;-77
2022/10/14 01:48:40;;;;;;;12.73;6.67;;;13.10;99.90;;;;;;5048485;28;20939;-77
2022/10/14 01:51:13;;;;;;;10.70;5.97;;;13.10;99.90;;;;;;5048543;28;20567;-76
2022/10/14 01:53:42;;;;;;;11.33;6.50;;;13.10;99.90;;;;;;5051356;28;20428;-77
2022/10/14 01:56:11;;;;;;;7.60;5.30;;;13.10;99.90;;;;;;5032317;28;20464;-76
2022/10/14 01:58:38;;;;;;;11.10;5.70;;;13.10;99.90;;;;;;5049934;28;20857;-77
2022/10/14 02:01:07;;;;;;;8.03;5.60;;;13.10;99.90;;;;;;5049852;28;20441;-78
2022/10/14 02:03:44;;;;;;;11.60;6.37;;;13.10;99.90;;;;;;5048514;28;20447;-77
2022/10/14 02:06:35;;;;;;;14.80;7.03;;;13.10;99.90;;;;;;5031684;28;20877;-78
2022/10/14 02:09:15;;;;;;;10.03;6.33;;;13.00;99.90;;;;;;5048134;28;20430;-77
2022/10/14 02:12:24;;;;;;;9.67;7.20;;;12.90;99.90;;;;;;5050096;28;20567;-78
2022/10/14 02:14:59;;;;;;;12.17;7.03;;;12.90;99.90;;;;;;5049420;28;20459;-79
2022/10/14 02:17:46;;;;;;;20.40;7.90;;;12.90;99.90;;;;;;5048038;28;20436;-80
2022/10/14 02:20:19;;;;;;;18.57;8.00;;;12.90;99.90;;;;;;5049743;28;20420;-78
2022/10/14 02:22:50;;;;;;;11.40;6.53;;;12.80;99.90;;;;;;5049650;28;20478;-81
2022/10/14 02:25:25;;;;;;;9.67;6.47;;;12.80;99.90;;;;;;5049521;28;20438;-77
2022/10/14 02:27:52;;;;;;;7.00;5.40;;;12.80;99.90;;;;;;5047895;28;20429;-80
2022/10/14 02:30:18;;;;;;;9.60;4.93;;;12.80;99.90;;;;;;5048014;28;20943;-77
2022/10/14 02:32:46;;;;;;;10.97;5.13;;;12.90;99.90;;;;;;5049180;28;20470;-77
2022/10/14 02:35:16;;;;;;;7.90;5.00;;;13.00;99.90;;;;;;5049767;28;20453;-77
2022/10/14 02:37:43;;;;;;;11.77;5.80;;;13.00;99.90;;;;;;5048993;28;20929;-77
2022/10/14 02:40:34;;;;;;;8.27;6.00;;;13.10;99.90;;;;;;5032625;28;20468;-77
2022/10/14 02:43:00;;;;;;;9.67;6.23;;;13.10;99.90;;;;;;5047879;28;20843;-78
2022/10/14 02:45:26;;;;;;;8.27;5.17;;;13.00;99.90;;;;;;5047976;28;20446;-77
2022/10/14 02:47:53;;;;;;;8.20;5.43;;;13.10;99.90;;;;;;5048218;28;20322;-77
2022/10/14 02:50:19;;;;;;;8.50;5.27;;;13.10;99.90;;;;;;5049512;28;20464;-77
2022/10/14 02:52:45;;;;;;;10.30;5.53;;;13.10;99.90;;;;;;5048312;28;20994;-76
2022/10/14 02:55:11;;;;;;;10.30;5.20;;;13.10;99.90;;;;;;5032038;28;20563;-77
2022/10/14 02:57:37;;;;;;;8.53;6.20;;;13.10;99.90;;;;;;5031488;28;20525;-76
2022/10/14 03:00:06;;;;;;;13.60;5.70;;;13.10;99.90;;;;;;5050060;28;20176;-77
2022/10/14 03:02:32;;;;;;;9.63;5.63;;;13.20;99.90;;;;;;5049749;28;20661;-77
2022/10/14 03:04:57;;;;;;;8.17;5.57;;;13.20;99.90;;;;;;5048739;28;20461;-77
2022/10/14 03:07:23;;;;;;;8.73;5.90;;;13.30;99.90;;;;;;5049007;28;20188;-76
2022/10/14 03:09:49;;;;;;;7.33;5.60;;;13.30;99.90;;;;;;5050685;28;20184;-76
2022/10/14 03:12:15;;;;;;;13.10;6.00;;;13.40;99.90;;;;;;5052513;28;21004;-78
2022/10/14 03:14:41;;;;;;;13.90;5.80;;;13.30;99.90;;;;;;5054226;28;20196;-77
2022/10/14 03:17:07;;;;;;;10.17;5.50;;;13.30;99.90;;;;;;5052449;28;20430;-77
2022/10/14 03:19:33;;;;;;;6.17;5.00;;;13.20;99.90;;;;;;5052408;28;20184;-76
2022/10/14 03:21:59;;;;;;;9.03;5.10;;;13.30;99.90;;;;;;5053411;28;20432;-76
2022/10/14 03:24:25;;;;;;;9.60;6.00;;;13.30;99.90;;;;;;5051873;28;20450;-76
2022/10/14 03:26:50;;;;;;;13.03;5.47;;;13.30;99.90;;;;;;5052909;28;20496;-77
2022/10/14 03:29:16;;;;;;;10.97;6.70;;;13.20;99.90;;;;;;5051648;28;20429;-77
2022/10/14 03:31:41;;;;;;;9.93;6.40;;;13.20;99.90;;;;;;5051576;28;20208;-77
2022/10/14 03:34:07;;;;;;;17.40;6.30;;;13.10;99.90;;;;;;5034722;28;20190;-77
2022/10/14 03:36:33;;;;;;;8.67;5.70;;;13.00;99.90;;;;;;5052493;28;20188;-76
2022/10/14 03:38:58;;;;;;;17.60;7.30;;;13.00;99.90;;;;;;5034797;28;20207;-77
2022/10/14 03:41:24;;;;;;;8.77;5.83;;;13.00;99.90;;;;;;5052613;28;20198;-77
2022/10/14 03:43:50;;;;;;;9.77;5.67;;;13.10;99.90;;;;;;5052871;28;20433;-78
2022/10/14 03:46:16;;;;;;;13.63;5.90;;;13.10;99.90;;;;;;5052818;28;20484;-77
2022/10/14 03:48:41;;;;;;;11.47;6.40;;;13.10;99.90;;;;;;5034802;28;20195;-78
2022/10/14 03:51:07;;;;;;;7.50;5.20;;;13.10;99.90;;;;;;5034428;28;20692;-77
2022/10/14 03:53:33;;;;;;;13.60;5.77;;;13.10;99.90;;;;;;5052630;28;20543;-77
2022/10/14 03:55:58;;;;;;;17.13;6.03;;;13.10;99.90;;;;;;5051630;28;20210;-77
2022/10/14 03:58:24;;;;;;;11.33;5.17;;;13.10;99.90;;;;;;5052660;28;20661;-78
2022/10/14 04:00:49;;;;;;;11.73;5.93;;;13.10;99.90;;;;;;5051537;28;20195;-77
2022/10/14 04:03:15;;;;;;;8.03;5.20;;;13.00;99.90;;;;;;5051543;28;20214;-78
2022/10/14 04:05:40;;;;;;;9.53;5.17;;;12.90;99.90;;;;;;5064070;28;20198;-77
2022/10/14 04:08:06;;;;;;;10.23;4.20;;;12.90;99.90;;;;;;5076167;28;20195;-77
2022/10/14 04:10:32;;;;;;;8.40;4.80;;;12.90;99.90;;;;;;5071688;28;20179;-77
2022/10/14 04:12:57;;;;;;;7.00;4.80;;;13.00;99.90;;;;;;5055422;28;20187;-76
2022/10/14 04:15:23;;;;;;;8.13;4.20;;;13.00;99.90;;;;;;5053595;28;20768;-78
2022/10/14 04:17:49;;;;;;;6.00;4.70;;;13.10;99.90;;;;;;5054529;28;20188;-77
2022/10/14 04:20:15;;;;;;;5.67;4.50;;;13.10;99.90;;;;;;5051431;28;20194;-81
2022/10/14 04:22:41;;;;;;;6.23;4.63;;;13.10;99.90;;;;;;5033469;28;20192;-80
2022/10/14 04:25:07;;;;;;;4.50;3.80;;;13.20;99.90;;;;;;5052425;28;20504;-80
2022/10/14 04:27:33;;;;;;;10.43;4.40;;;13.10;99.90;;;;;;5018510;28;20223;-78
2022/10/14 04:29:59;;;;;;;4.80;4.37;;;13.10;99.90;;;;;;5034554;28;20469;-78
2022/10/14 04:32:24;;;;;;;6.03;3.80;;;13.10;99.90;;;;;;5033962;28;20900;-78
2022/10/14 04:34:50;;;;;;;4.83;3.17;;;13.10;99.90;;;;;;5052304;28;20200;-77
2022/10/14 04:37:16;;;;;;;10.10;3.73;;;13.00;99.90;;;;;;5051049;28;20211;-78
2022/10/14 04:39:42;;;;;;;5.33;3.60;;;13.10;99.90;;;;;;5051822;28;20176;-78
2022/10/14 04:42:08;;;;;;;6.80;3.53;;;13.10;99.90;;;;;;5051724;28;20426;-77
2022/10/14 04:44:34;;;;;;;7.63;3.80;;;13.00;99.90;;;;;;5051874;28;20496;-78
2022/10/14 04:46:59;;;;;;;4.80;3.67;;;13.00;99.90;;;;;;5050211;28;20935;-78
2022/10/14 04:49:25;;;;;;;4.70;3.27;;;13.00;99.90;;;;;;5050208;28;20187;-79
2022/10/14 04:51:50;;;;;;;9.60;4.33;;;13.00;99.90;;;;;;5034771;28;20211;-78
2022/10/14 04:54:16;;;;;;;4.63;3.80;;;13.10;99.90;;;;;;5033845;28;20186;-78
2022/10/14 04:56:42;;;;;;;11.57;3.63;;;13.10;99.90;;;;;;5033980;28;20187;-77
2022/10/14 04:59:07;;;;;;;7.10;3.47;;;13.00;99.90;;;;;;5051242;28;20195;-78
2022/10/14 05:01:33;;;;;;;7.03;3.93;;;13.10;99.90;;;;;;5050037;28;20289;-78
2022/10/14 05:03:58;;;;;;;8.03;4.10;;;13.00;99.90;;;;;;5049610;28;20528;-78
2022/10/14 05:06:24;;;;;;;5.87;4.40;;;13.10;99.90;;;;;;5032957;28;20211;-78
2022/10/14 05:08:50;;;;;;;5.93;3.90;;;13.10;99.90;;;;;;5034224;28;20187;-78
2022/10/14 05:11:15;;;;;;;10.10;4.23;;;13.20;99.90;;;;;;5052329;28;20296;-78
2022/10/14 05:13:41;;;;;;;5.83;4.73;;;13.00;99.90;;;;;;5034258;28;20257;-81
2022/10/14 05:16:07;;;;;;;6.23;4.40;;;13.00;99.90;;;;;;5050358;28;20233;-79
2022/10/14 05:18:33;;;;;;;5.90;4.20;;;13.10;99.90;;;;;;5032966;28;20219;-78
2022/10/14 05:20:59;;;;;;;9.13;4.10;;;13.10;99.90;;;;;;5049012;28;20463;-78
2022/10/14 05:23:25;;;;;;;6.53;3.87;;;13.10;99.90;;;;;;5032296;28;20426;-80
2022/10/14 05:25:51;;;;;;;5.90;3.90;;;13.10;99.90;;;;;;5050702;28;20211;-78
2022/10/14 05:28:17;;;;;;;6.37;4.30;;;13.10;99.90;;;;;;5049443;28;21051;-78
2022/10/14 05:30:44;;;;;;;7.60;3.87;;;13.10;99.90;;;;;;5051158;28;20433;-80
2022/10/14 05:33:10;;;;;;;7.90;4.30;;;13.20;99.90;;;;;;5032681;28;20873;-81
2022/10/14 05:35:36;;;;;;;7.57;4.50;;;13.20;99.90;;;;;;5048788;28;20438;-79
2022/10/14 05:38:02;;;;;;;8.03;5.40;;;13.10;99.90;;;;;;5048677;28;20452;-78
2022/10/14 05:40:28;;;;;;;9.30;4.50;;;13.10;99.90;;;;;;5015240;28;20414;-79
2022/10/14 05:42:53;;;;;;;7.93;4.80;;;13.00;99.90;;;;;;5048924;28;20445;-81
2022/10/14 05:45:19;;;;;;;5.77;3.90;;;13.00;99.90;;;;;;5030664;28;20218;-78
2022/10/14 05:47:45;;;;;;;7.97;4.77;;;13.00;99.90;;;;;;5048636;28;20183;-78
2022/10/14 05:50:12;;;;;;;8.03;4.03;;;13.00;99.90;;;;;;5030271;28;20240;-77
2022/10/14 05:52:39;;;;;;;7.67;3.73;;;13.00;99.90;;;;;;5047124;28;20983;-78
2022/10/14 05:55:06;;;;;;;5.47;3.87;;;13.00;99.90;;;;;;5046700;28;20487;-79
2022/10/14 05:57:34;;;;;;;5.03;4.10;;;13.00;99.90;;;;;;5046914;28;20444;-77
2022/10/14 06:00:00;;;;;;;5.97;4.03;;;13.00;99.90;;;;;;5046968;28;20506;-77
2022/10/14 06:02:26;;;;;;;12.60;3.83;;;13.00;99.90;;;;;;5046378;28;20477;-77
2022/10/14 06:04:52;;;;;;;6.23;4.43;;;13.00;99.90;;;;;;5031120;28;21027;-78
2022/10/14 06:07:17;;;;;;;8.13;4.20;;;13.00;99.90;;;;;;5047931;28;20233;-80
2022/10/14 06:09:43;;;;;;;10.63;4.53;;;13.00;99.90;;;;;;5049375;28;20765;-78
2022/10/14 06:12:09;;;;;;;7.90;4.77;;;13.00;99.90;;;;;;5049835;28;20222;-77
2022/10/14 06:14:37;;;;;;;7.90;4.77;;;13.00;99.90;;;;;;5050790;28;20543;-77
2022/10/14 06:17:03;;;;;;;9.90;4.70;;;13.00;99.90;;;;;;5032891;28;20191;-77
2022/10/14 06:19:30;;;;;;;6.90;4.23;;;13.00;99.90;;;;;;5049218;28;20434;-76
2022/10/14 06:21:56;;;;;;;7.40;4.60;;;13.00;99.90;;;;;;5047974;28;21001;-78
2022/10/14 06:24:22;;;;;;;6.13;5.07;;;13.00;99.90;;;;;;5050345;28;20474;-77
2022/10/14 06:26:47;;;;;;;7.83;4.30;;;13.00;99.90;;;;;;5049373;28;20453;-78
2022/10/14 06:29:14;;;;;;;9.80;4.80;;;13.10;99.90;;;;;;5050167;28;20192;-77
2022/10/14 06:31:40;;;;;;;7.70;5.03;;;13.20;99.90;;;;;;5047737;28;20217;-76
2022/10/14 06:34:05;;;;;;;11.30;6.10;;;13.20;99.90;;;;;;5049030;28;20426;-77
2022/10/14 06:36:31;;;;;;;9.53;4.73;;;13.20;99.90;;;;;;5033174;28;20674;-78
2022/10/14 06:38:57;;;;;;;9.53;4.80;;;13.20;99.90;;;;;;5049521;28;20648;-78
2022/10/14 06:41:23;;;;;;;12.47;4.80;;;13.10;99.90;;;;;;5032944;28;20778;-77
2022/10/14 06:43:48;;;;;;;5.90;4.53;;;13.10;99.90;;;;;;5032938;28;20195;-77
2022/10/14 06:46:14;;;;;;;6.47;5.10;;;13.20;99.90;;;;;;5019150;28;20468;-77
2022/10/14 06:48:40;;;;;;;6.23;4.50;;;13.20;99.90;;;;;;5053991;28;20190;-77
2022/10/14 06:51:05;;;;;;;6.27;4.83;;;13.20;99.90;;;;;;5052602;28;20253;-79
2022/10/14 06:53:31;;;;;;;9.30;5.27;;;13.30;99.90;;;;;;5051356;28;20669;-78
2022/10/14 06:56:02;;;;;;;7.60;5.27;;;13.30;99.90;;;;;;5034616;28;20213;-78
2022/10/14 06:58:28;;;;;;;6.80;5.03;;;13.30;99.90;;;;;;5052387;28;20941;-77
2022/10/14 07:00:54;;;;;;;10.77;4.93;;;13.30;99.90;;;;;;5052604;28;20503;-78
2022/10/14 07:03:20;;;;;;;11.40;4.53;;;13.40;99.90;;;;;;5052500;28;20456;-77
2022/10/14 07:05:46;;;;;;;8.80;5.10;;;13.40;99.90;;;;;;5050820;28;20446;-79
2022/10/14 07:08:11;;;;;;;7.03;4.90;;;13.40;99.90;;;;;;5050999;28;20179;-78
2022/10/14 07:10:37;;;;;;;10.20;4.20;;;13.60;99.90;;;;;;5050930;28;20797;-77
2022/10/14 07:13:03;;;;;;;9.27;4.83;;;13.50;99.90;;;;;;5052395;28;20190;-79
2022/10/14 07:15:28;;;;;;;8.53;5.30;;;13.60;99.90;;;;;;5051968;28;20204;-78
2022/10/14 07:17:54;;;;;;;6.80;5.07;;;13.60;99.90;;;;;;5052258;28;20668;-78
2022/10/14 07:20:19;;;;;;;10.50;4.70;;;13.60;99.90;;;;;;5052049;28;20184;-78
2022/10/14 07:22:45;;;;;;;7.83;5.10;;;13.60;99.90;;;;;;5050581;28;20190;-77
2022/10/14 07:25:11;;;;;;;7.83;4.80;;;13.60;99.90;;;;;;5051934;28;20234;-77
2022/10/14 07:27:36;;;;;;;6.73;5.10;;;13.70;99.90;;;;;;5050537;28;20195;-78
2022/10/14 07:30:04;;;;;;;10.83;5.60;;;13.70;99.90;;;;;;5024650;28;20191;-78
2022/10/14 07:32:30;;;;;;;8.30;5.50;;;13.70;99.90;;;;;;4922559;28;21023;-78
2022/10/14 07:34:55;;;;;;;8.53;5.53;;;13.80;99.90;;;;;;5051221;28;20553;-78
2022/10/14 07:37:21;;;;;;;12.27;5.27;;;13.80;99.90;;;;;;5033063;28;20274;-78
2022/10/14 07:39:47;;;;;;;7.20;4.83;;;13.80;99.90;;;;;;5050021;28;20195;-77
2022/10/14 07:42:13;;;;;;;8.53;4.53;;;13.90;99.90;;;;;;5050317;28;20426;-79
2022/10/14 07:44:38;;;;;;;7.83;5.00;;;13.90;99.90;;;;;;5051153;28;20218;-78
2022/10/14 07:47:05;;;;;;;11.93;5.23;;;14.00;99.90;;;;;;5050378;28;20197;-77
2022/10/14 07:49:30;;;;;;;6.83;5.10;;;14.00;99.90;;;;;;5051774;28;20960;-77
2022/10/14 07:51:57;;;;;;;7.30;5.03;;;14.00;99.90;;;;;;5050109;28;20477;-77
2022/10/14 07:54:25;;;;;;;11.77;5.97;;;14.10;99.90;;;;;;5049708;28;20437;-77
2022/10/14 07:56:52;;;;;;;7.97;5.40;;;14.10;99.90;;;;;;5039082;28;21016;-78
2022/10/14 07:59:19;;;;;;;13.50;5.60;;;14.10;99.90;;;;;;5031350;28;20445;-77
2022/10/14 08:01:46;;;;;;;8.80;4.80;;;14.10;99.90;;;;;;5031710;28;20427;-77
2022/10/14 08:04:11;;;;;;;10.07;5.37;;;14.20;99.90;;;;;;5030129;28;20420;-78
2022/10/14 08:06:37;;;;;;;5.17;4.60;;;14.30;99.90;;;;;;5029861;28;20427;-77
2022/10/14 08:09:04;;;;;;;15.53;5.17;;;14.30;99.90;;;;;;5029773;28;20724;-77
2022/10/14 08:11:30;;;;;;;11.90;5.63;;;14.40;99.90;;;;;;5031189;28;20233;-77
2022/10/14 08:13:57;;;;;;;7.73;5.07;;;14.40;99.90;;;;;;5032029;28;20849;-76
2022/10/14 08:16:26;;;;;;;8.00;4.50;;;14.60;99.90;;;;;;5031673;28;20262;-77
2022/10/14 08:18:55;;;;;;;8.87;4.70;;;14.70;99.90;;;;;;5031389;28;20412;-78
2022/10/14 08:21:21;;;;;;;7.93;4.87;;;14.80;99.90;;;;;;5014123;28;20842;-76
2022/10/14 08:23:47;;;;;;;9.80;4.50;;;14.80;99.90;;;;;;5030190;28;20481;-76
2022/10/14 08:26:29;;;;;;;8.57;5.43;;;14.80;99.90;;;;;;5032001;28;20287;-77
2022/10/14 08:28:56;;;;;;;5.80;4.63;;;14.80;99.90;;;;;;5031751;28;20931;-76
2022/10/14 08:31:22;;;;;;;9.00;5.83;;;14.70;99.90;;;;;;5029284;28;20474;-77
2022/10/14 08:33:48;;;;;;;11.63;5.47;;;14.60;99.90;;;;;;5030419;28;20442;-76
2022/10/14 08:36:14;;;;;;;10.23;5.30;;;14.70;99.90;;;;;;5030635;28;20494;-77
2022/10/14 08:38:40;;;;;;;8.23;5.17;;;14.60;99.90;;;;;;5029080;28;20420;-77
2022/10/14 08:41:12;;;;;;;5.77;4.10;;;14.70;99.90;;;;;;5030104;28;20922;-78
2022/10/14 08:44:06;;;;;;;15.80;6.80;;;14.70;99.90;;;;;;5028700;28;20423;-77
2022/10/14 08:46:49;;;;;;;7.93;5.27;;;14.70;99.90;;;;;;5029993;28;20537;-77
2022/10/14 08:49:26;;;;;;;7.03;5.30;;;14.70;99.90;;;;;;5030461;28;20438;-78
2022/10/14 08:52:02;;;;;;;9.30;5.10;;;14.80;99.90;;;;;;5030336;28;20466;-77
2022/10/14 08:54:40;;;;;;;15.60;5.33;;;14.70;99.90;;;;;;5012732;28;20478;-76
2022/10/14 08:57:15;;;;;;;8.40;5.73;;;14.80;99.90;;;;;;5029831;28;20403;-77
2022/10/14 08:59:41;;;;;;;11.93;5.63;;;14.90;99.90;;;;;;5029571;28;20411;-78
2022/10/14 09:02:36;;;;;;;8.00;5.70;;;15.00;99.90;;;;;;5029205;28;20428;-77
2022/10/14 09:05:03;;;;;;;7.37;5.17;;;15.00;99.90;;;;;;5026950;28;20460;-76
2022/10/14 09:07:31;;;;;;;6.93;4.50;;;15.10;99.90;;;;;;5026831;28;20424;-76
2022/10/14 09:10:02;;;;;;;6.10;4.47;;;15.20;99.90;;;;;;5029356;28;20454;-78
2022/10/14 09:12:31;;;;;;;9.77;5.37;;;15.20;99.90;;;;;;5027962;28;21012;-78
2022/10/14 09:15:22;;;;;;;10.13;4.57;;;15.30;99.90;;;;;;5028901;28;20522;-76
2022/10/14 09:18:01;;;;;;;4.33;3.87;;;15.40;99.90;;;;;;5027780;28;20849;-77
2022/10/14 09:20:27;;;;;;;8.43;4.90;;;15.60;99.90;;;;;;5029162;28;20506;-77
2022/10/14 09:23:24;;;;;;;5.50;4.70;;;15.80;99.90;;;;;;5027461;28;20530;-78
2022/10/14 09:25:55;;;;;;;8.23;4.53;;;15.70;99.90;;;;;;5029308;28;20294;-76
2022/10/14 09:28:28;;;;;;;9.93;4.73;;;15.80;99.90;;;;;;5028698;28;20691;-76
2022/10/14 09:30:54;;;;;;;7.17;4.63;;;15.90;99.90;;;;;;5027519;28;20427;-76
2022/10/14 09:33:20;;;;;;;6.53;4.63;;;16.00;99.90;;;;;;5027473;28;20424;-77
2022/10/14 09:35:47;;;;;;;12.50;4.13;;;16.20;99.90;;;;;;5028845;28;20604;-78
2022/10/14 09:38:14;;;;;;;7.30;5.30;;;16.30;99.90;;;;;;5029555;28;20427;-79
2022/10/14 09:40:45;;;;;;;12.03;5.70;;;16.30;99.90;;;;;;5029272;28;20458;-78
2022/10/14 09:43:14;;;;;;;5.93;4.27;;;16.40;99.90;;;;;;5029128;28;20964;-77
2022/10/14 09:45:59;;;;;;;6.47;4.60;;;16.50;99.90;;;;;;5027682;28;20579;-79
2022/10/14 09:48:38;;;;;;;7.27;4.63;;;16.60;99.90;;;;;;5027770;28;20424;-79
2022/10/14 09:51:28;;;;;;;8.93;5.00;;;16.60;99.90;;;;;;5027266;28;21048;-78
2022/10/14 09:54:03;;;;;;;12.10;5.93;;;16.70;99.90;;;;;;5027568;28;20436;-78
2022/10/14 09:56:35;;;;;;;6.37;4.23;;;16.70;99.90;;;;;;5026562;28;20459;-79
2022/10/14 09:59:02;;;;;;;8.30;4.83;;;16.80;99.90;;;;;;5013553;28;20978;-77
2022/10/14 10:01:40;;;;;;;7.60;4.90;;;16.70;99.90;;;;;;5026272;28;20467;-79
2022/10/14 10:04:30;;;;;;;8.60;5.40;;;16.80;99.90;;;;;;5027923;28;20460;-78
2022/10/14 10:06:58;;;;;;;8.63;4.57;;;16.80;99.90;;;;;;5026459;28;20998;-79
2022/10/14 10:09:24;;;;;;;8.70;5.00;;;16.80;99.90;;;;;;5028258;28;20503;-76
2022/10/14 10:11:50;;;;;;;8.83;5.40;;;16.80;99.90;;;;;;5028438;28;20476;-79
2022/10/14 10:14:16;;;;;;;5.83;3.47;;;16.90;99.90;;;;;;5028549;28;20418;-79
2022/10/14 10:16:42;;;;;;;6.63;3.27;;;16.70;99.90;;;;;;5030094;28;20278;-77
2022/10/14 10:19:42;;;;;;;4.60;3.10;;;16.70;99.90;;;;;;5049151;28;20421;-79
2022/10/14 10:22:27;;;;;;;9.37;3.33;;;16.80;99.90;;;;;;5053887;28;20229;-77
2022/10/14 10:25:05;;;;;;;9.50;4.57;;;16.90;99.90;;;;;;5053284;28;20472;-78
2022/10/14 10:27:35;;;;;;;8.67;3.63;;;17.00;99.90;;;;;;5048029;28;20428;-77
2022/10/14 10:30:22;;;;;;;6.27;3.80;;;17.00;99.90;;;;;;5036828;28;20415;-77
2022/10/14 10:33:41;;;;;;;7.07;3.80;;;16.90;99.90;;;;;;5029480;28;20466;-77
2022/10/14 10:36:27;;;;;;;7.97;3.10;;;16.80;99.90;;;;;;5006732;28;20447;-78
2022/10/14 10:39:00;;;;;;;4.37;3.40;;;16.80;99.90;;;;;;5026457;28;20508;-78
2022/10/14 10:41:53;;;;;;;5.57;2.90;;;16.90;99.90;;;;;;5027100;28;20520;-77
2022/10/14 10:44:32;;;;;;;5.53;3.47;;;17.00;99.90;;;;;;5029632;28;20407;-79
2022/10/14 10:47:15;;;;;;;3.83;2.97;;;16.80;99.90;;;;;;5030532;28;20474;-79
2022/10/14 10:49:58;;;;;;;3.13;2.73;;;16.80;99.90;;;;;;5029552;28;20413;-78
2022/10/14 10:52:50;;;;;;;5.67;3.10;;;16.70;99.90;;;;;;5028580;28;20457;-77
2022/10/14 10:55:52;;;;;;;6.10;2.60;;;16.70;99.90;;;;;;5028547;28;21013;-78
2022/10/14 10:58:57;;;;;;;5.07;3.43;;;16.70;99.90;;;;;;5027074;28;21186;-77
2022/10/14 11:02:09;;;;;;;6.47;3.13;;;16.60;99.90;;;;;;5021763;28;20428;-77
2022/10/14 11:04:49;;;;;;;3.97;3.10;;;16.60;99.90;;;;;;5006019;28;20478;-77
2022/10/14 11:13:23;;;;;;;5.63;2.50;;;16.60;99.90;;;;;;5028111;28;20487;-78
2022/10/14 11:16:09;;;;;;;4.53;2.37;;;16.60;99.90;;;;;;5027929;28;20928;-78
2022/10/14 11:18:44;;;;;;;3.60;2.27;;;16.60;99.90;;;;;;5025841;28;20421;-76
2022/10/14 11:21:31;;;;;;;2.70;2.30;;;16.60;99.90;;;;;;5026266;28;20435;-78
2022/10/14 11:24:19;;;;;;;8.70;2.60;;;16.50;99.90;;;;;;5026256;28;20419;-78
2022/10/14 11:26:45;;;;;;;2.93;1.83;;;16.30;99.90;;;;;;5026815;28;20517;-79
2022/10/14 11:29:22;;;;;;;2.40;2.20;;;16.10;99.90;;;;;;5027971;28;20435;-78
2022/10/14 11:32:06;;;;;;;2.40;1.70;;;15.70;99.90;;;;;;5030193;28;20206;-78
2022/10/14 11:34:40;;;;;;;3.40;1.93;;;15.60;99.90;;;;;;5031077;28;20469;-77
2022/10/14 11:37:11;;;;;;;6.40;2.27;;;15.70;99.90;;;;;;5031801;28;20408;-79
2022/10/14 11:39:38;;;;;;;5.30;2.67;;;15.70;99.90;;;;;;5032460;28;20421;-77
2022/10/14 11:42:04;;;;;;;3.70;2.00;;;15.50;99.90;;;;;;5032540;28;20982;-77
2022/10/14 11:44:38;;;;;;;2.93;2.27;;;15.50;99.90;;;;;;5030478;28;20444;-77
2022/10/14 11:47:28;;;;;;;3.20;2.07;;;15.60;99.90;;;;;;5012913;28;20618;-76
2022/10/14 11:50:00;;;;;;;4.00;2.07;;;15.60;99.90;;;;;;5028738;28;20885;-77
2022/10/14 11:52:35;;;;;;;3.73;1.87;;;15.70;99.90;;;;;;5029787;28;20575;-76
2022/10/14 11:55:27;;;;;;;8.70;2.20;;;15.80;99.90;;;;;;5029623;28;20513;-76
2022/10/14 11:57:57;;;;;;;3.27;1.87;;;16.00;99.90;;;;;;5029095;28;20451;-77
2022/10/14 12:00:41;;;;;;;4.97;2.17;;;16.20;99.90;;;;;;5029807;28;20412;-77
2022/10/14 12:03:45;;;;;;;3.13;2.60;;;16.30;99.90;;;;;;5030022;28;20427;-75
2022/10/14 12:06:20;;;;;;;4.97;2.20;;;16.30;99.90;;;;;;5020517;28;20455;-75
2022/10/14 12:09:13;;;;;;;1.93;1.67;;;16.40;99.90;;;;;;5011608;28;20984;-75
2022/10/14 12:11:38;;;;;;;2.80;1.83;;;16.40;99.90;;;;;;5029526;28;20506;-76
2022/10/14 12:14:27;;;;;;;3.33;1.43;;;16.50;99.90;;;;;;5029349;28;20456;-76
2022/10/14 12:16:54;;;;;;;4.37;1.93;;;16.60;99.90;;;;;;5029383;28;20205;-75
2022/10/14 12:19:28;;;;;;;3.63;2.10;;;16.70;99.90;;;;;;5029608;28;20567;-76
2022/10/14 12:22:15;;;;;;;3.30;2.00;;;16.70;99.90;;;;;;5027861;28;20571;-77
2022/10/14 12:24:49;;;;;;;2.27;1.57;;;16.70;99.90;;;;;;5029145;28;20471;-76
2022/10/14 12:27:17;;;;;;;3.60;1.80;;;16.70;99.90;;;;;;5029292;28;20452;-76
2022/10/14 12:29:46;;;;;;;3.57;1.93;;;16.80;99.90;;;;;;5027713;28;20788;-75
2022/10/14 12:32:25;;;;;;;2.57;2.30;;;16.90;99.90;;;;;;5029034;28;20473;-75
2022/10/14 12:34:56;;;;;;;2.67;1.87;;;16.70;99.90;;;;;;5029330;28;20444;-76
2022/10/14 12:37:31;;;;;;;6.00;1.70;;;16.70;99.90;;;;;;5028829;28;20424;-77
2022/10/14 12:40:05;;;;;;;7.83;1.63;;;16.70;99.90;;;;;;5029101;28;20444;-75
2022/10/14 12:42:37;;;;;;;2.80;1.80;;;16.70;99.90;;;;;;5029647;28;20440;-77
2022/10/14 12:45:14;;;;;;;4.90;1.40;;;16.70;99.90;;;;;;5028572;28;20441;-78
2022/10/14 12:47:40;;;;;;;1.50;1.40;;;16.70;99.90;;;;;;5029632;28;20425;-80
2022/10/14 12:50:26;;;;;;;2.33;1.30;;;16.60;99.90;;;;;;5011835;28;20439;-79
2022/10/14 12:52:58;;;;;;;2.63;1.90;;;16.70;99.90;;;;;;5027255;28;20495;-77
2022/10/14 12:55:26;;;;;;;2.60;1.73;;;16.70;99.90;;;;;;5029514;28;20907;-77
2022/10/14 12:58:01;;;;;;;3.03;1.73;;;16.60;99.90;;;;;;5028876;28;20995;-78
2022/10/14 13:00:34;;;;;;;5.73;1.60;;;16.50;99.90;;;;;;5030374;28;20508;-78
2022/10/14 13:03:02;;;;;;;3.07;1.50;;;16.60;99.90;;;;;;5028898;28;20507;-78
2022/10/14 13:05:37;;;;;;;5.20;1.70;;;16.60;99.90;;;;;;5030619;28;20812;-79
2022/10/14 13:08:21;;;;;;;5.97;1.33;;;16.70;99.90;;;;;;5030414;28;20463;-78